createdAt,value
2019-05-15T00:02:10.620Z,8.70
2019-05-15T00:04:49.286Z,8.70
2019-05-15T00:07:31.102Z,8.70
2019-05-15T00:10:13.062Z,8.70
2019-05-15T00:12:54.855Z,8.60
2019-05-15T00:15:36.924Z,8.60
2019-05-15T00:18:08.719Z,8.60
2019-05-15T00:21:02.800Z,8.70
2019-05-15T00:23:44.415Z,8.70
2019-05-15T00:26:25.586Z,8.60
2019-05-15T00:29:12.759Z,8.40
2019-05-15T00:31:50.419Z,8.20
2019-05-15T00:34:32.197Z,8.10
2019-05-15T00:37:13.913Z,8.00
2019-05-15T00:39:56.046Z,7.80
2019-05-15T00:42:38.383Z,7.70
2019-05-15T00:45:20.042Z,7.70
2019-05-15T00:48:01.735Z,7.60
2019-05-15T00:50:43.185Z,7.50
2019-05-15T00:53:24.368Z,7.40
2019-05-15T00:56:08.662Z,7.30
2019-05-15T00:58:49.915Z,7.20
2019-05-15T01:01:31.265Z,7.10
2019-05-15T01:04:13.185Z,7.00
2019-05-15T01:06:55.279Z,7.00
2019-05-15T01:09:38.465Z,7.00
2019-05-15T01:12:20.121Z,6.90
2019-05-15T01:15:02.008Z,6.90
2019-05-15T01:17:44.065Z,6.90
2019-05-15T01:20:25.395Z,6.90
2019-05-15T01:23:08.895Z,6.80
2019-05-15T01:25:49.512Z,6.70
2019-05-15T01:28:31.234Z,6.70
2019-05-15T01:31:13.156Z,6.70
2019-05-15T01:33:55.362Z,6.60
2019-05-15T01:36:38.206Z,6.60
2019-05-15T01:42:19.442Z,6.50
2019-05-15T01:45:00.768Z,6.50
2019-05-15T01:47:42.712Z,6.50
2019-05-15T01:50:24.034Z,6.40
2019-05-15T01:53:08.006Z,6.50
2019-05-15T01:55:49.718Z,6.40
2019-05-15T01:58:31.157Z,6.40
2019-05-15T02:01:12.301Z,6.30
2019-05-15T02:03:54.223Z,6.30
2019-05-15T02:06:36.068Z,6.30
2019-05-15T02:09:18.657Z,6.30
2019-05-15T02:12:00.151Z,6.20
2019-05-15T02:14:42.222Z,6.20
2019-05-15T02:17:24.015Z,6.20
2019-05-15T02:20:05.249Z,6.10
2019-05-15T02:22:50.090Z,6.10
2019-05-15T02:25:31.602Z,6.00
2019-05-15T02:28:12.871Z,6.00
2019-05-15T02:30:54.282Z,6.00
2019-05-15T02:33:39.768Z,6.00
2019-05-15T02:36:21.008Z,6.00
2019-05-15T02:39:02.751Z,5.90
2019-05-15T02:41:44.757Z,5.90
2019-05-15T02:44:29.206Z,5.90
2019-05-15T02:47:09.677Z,5.90
2019-05-15T02:49:51.509Z,5.80
2019-05-15T02:52:33.145Z,5.80
2019-05-15T02:55:15.088Z,5.70
2019-05-15T02:57:59.082Z,5.60
2019-05-15T03:00:47.489Z,5.60
2019-05-15T03:03:23.890Z,5.50
2019-05-15T03:06:11.043Z,5.40
2019-05-15T03:09:05.652Z,5.40
2019-05-15T03:12:08.887Z,5.40
2019-05-15T03:14:49.225Z,5.40
2019-05-15T03:17:30.893Z,5.50
2019-05-15T03:20:12.954Z,5.50
2019-05-15T03:22:54.831Z,5.40
2019-05-15T03:25:39.888Z,5.40
2019-05-15T03:28:19.802Z,5.40
2019-05-15T03:31:17.597Z,5.40
2019-05-15T03:33:46.471Z,5.40
2019-05-15T03:36:31.777Z,5.30
2019-05-15T03:39:10.673Z,5.20
2019-05-15T03:41:52.625Z,5.20
2019-05-15T03:44:34.680Z,5.20
2019-05-15T03:47:19.170Z,5.20
2019-05-15T03:50:00.157Z,5.20
2019-05-15T03:52:41.542Z,5.20
2019-05-15T03:55:23.177Z,5.20
2019-05-15T03:58:05.156Z,5.10
2019-05-15T04:00:49.590Z,5.20
2019-05-15T04:03:30.230Z,5.10
2019-05-15T04:06:12.325Z,5.20
2019-05-15T04:08:53.554Z,5.10
2019-05-15T04:11:38.545Z,5.10
2019-05-15T04:14:19.349Z,5.10
2019-05-15T04:17:01.493Z,5.10
2019-05-15T04:25:42.317Z,5.30
2019-05-15T04:28:29.011Z,5.30
2019-05-15T04:31:09.576Z,5.30
2019-05-15T04:33:51.127Z,5.30
2019-05-15T04:36:32.378Z,5.30
2019-05-15T04:39:19.043Z,5.30
2019-05-15T04:41:59.204Z,5.40
2019-05-15T04:44:40.598Z,5.40
2019-05-15T04:47:22.701Z,5.60
2019-05-15T04:50:04.497Z,5.60
2019-05-15T04:52:49.912Z,5.50
2019-05-15T04:55:29.322Z,5.60
2019-05-15T04:58:10.983Z,5.70
2019-05-15T05:00:52.660Z,5.80
2019-05-15T05:03:34.794Z,5.90
2019-05-15T05:06:18.811Z,5.90
2019-05-15T05:08:59.722Z,6.00
2019-05-15T05:11:41.299Z,6.20
2019-05-15T05:14:22.756Z,6.30
2019-05-15T05:17:04.548Z,6.50
2019-05-15T05:19:47.842Z,6.60
2019-05-15T05:22:29.475Z,6.60
2019-05-15T05:25:10.707Z,6.70
2019-05-15T05:27:40.153Z,6.70
2019-05-15T05:30:29.332Z,6.90
2019-05-15T05:33:31.801Z,6.90
2019-05-15T05:36:13.632Z,6.90
2019-05-15T05:38:55.510Z,7.00
2019-05-15T05:41:39.151Z,7.10
2019-05-15T05:44:21.022Z,7.10
2019-05-15T05:47:02.789Z,7.10
2019-05-15T05:49:44.518Z,7.20
2019-05-15T05:52:28.013Z,7.30
2019-05-15T05:55:09.590Z,7.40
2019-05-15T05:57:50.932Z,7.50
2019-05-15T06:00:32.174Z,7.70
2019-05-15T06:03:14.205Z,7.80
2019-05-15T06:05:58.834Z,7.90
2019-05-15T06:08:39.033Z,7.90
2019-05-15T06:11:20.522Z,8.10
2019-05-15T06:14:02.553Z,8.20
2019-05-15T06:16:44.341Z,8.20
2019-05-15T06:19:27.788Z,8.40
2019-05-15T06:22:10.054Z,8.40
2019-05-15T06:24:51.767Z,8.50
2019-05-15T06:27:35.668Z,8.70
2019-05-15T06:30:22.074Z,8.80
2019-05-15T06:33:09.061Z,8.80
2019-05-15T06:35:45.177Z,8.90
2019-05-15T06:38:31.045Z,8.80
2019-05-15T06:41:11.988Z,8.80
2019-05-15T06:43:41.477Z,9.00
2019-05-15T06:46:30.213Z,9.40
2019-05-15T06:49:11.774Z,9.60
2019-05-15T06:51:51.372Z,9.70
2019-05-15T06:54:40.146Z,9.80
2019-05-15T06:57:22.176Z,9.90
2019-05-15T07:00:03.393Z,10.20
2019-05-15T07:02:45.436Z,10.40
2019-05-15T07:05:29.433Z,10.60
2019-05-15T07:08:13.572Z,10.90
2019-05-15T07:10:58.354Z,11.20
2019-05-15T07:13:40.965Z,11.40
2019-05-15T07:16:22.197Z,11.50
2019-05-15T07:19:03.968Z,11.60
2019-05-15T07:21:45.918Z,11.70
2019-05-15T07:24:28.903Z,11.70
2019-05-15T07:27:10.573Z,11.80
2019-05-15T07:29:52.507Z,11.90
2019-05-15T07:32:33.832Z,12.10
2019-05-15T07:35:15.984Z,12.20
2019-05-15T07:37:58.618Z,12.10
2019-05-15T07:40:40.035Z,12.10
2019-05-15T07:43:21.809Z,12.20
2019-05-15T07:46:08.121Z,12.20
2019-05-15T07:48:49.288Z,12.00
2019-05-15T07:51:31.517Z,12.20
2019-05-15T07:54:13.178Z,12.30
2019-05-15T07:56:55.265Z,12.30
2019-05-15T07:59:38.617Z,12.00
2019-05-15T08:02:19.984Z,12.00
2019-05-15T08:05:01.751Z,12.20
2019-05-15T08:07:41.609Z,12.30
2019-05-15T08:10:30.325Z,12.40
2019-05-15T08:13:12.386Z,12.50
2019-05-15T08:15:53.861Z,12.70
2019-05-15T08:18:35.905Z,12.80
2019-05-15T08:21:18.598Z,12.90
2019-05-15T08:24:00.115Z,13.00
2019-05-15T08:26:45.457Z,13.10
2019-05-15T08:29:25.207Z,13.10
2019-05-15T08:32:08.428Z,13.10
2019-05-15T08:34:50.031Z,13.10
2019-05-15T08:37:31.232Z,13.20
2019-05-15T08:40:13.466Z,13.20
2019-05-15T08:43:01.137Z,13.20
2019-05-15T08:45:39.186Z,13.10
2019-05-15T08:48:20.461Z,13.10
2019-05-15T08:51:02.532Z,13.30
2019-05-15T08:53:43.984Z,13.30
2019-05-15T08:56:25.275Z,13.40
2019-05-15T08:59:05.082Z,13.50
2019-05-15T09:01:54.915Z,13.70
2019-05-15T09:04:40.165Z,13.60
2019-05-15T09:07:21.441Z,13.60
2019-05-15T09:10:03.235Z,13.60
2019-05-15T09:12:45.297Z,13.70
2019-05-15T09:15:29.361Z,13.80
2019-05-15T09:18:15.814Z,13.90
2019-05-15T09:20:53.261Z,13.90
2019-05-15T09:23:34.833Z,14.00
2019-05-15T09:26:19.237Z,14.10
2019-05-15T09:28:59.808Z,14.20
2019-05-15T09:31:29.178Z,14.20
2019-05-15T09:34:48.071Z,14.10
2019-05-15T09:37:44.659Z,14.10
2019-05-15T09:40:43.274Z,14.10
2019-05-15T09:43:25.444Z,14.10
2019-05-15T09:46:10.177Z,14.20
2019-05-15T09:48:51.794Z,14.40
2019-05-15T09:51:33.445Z,14.60
2019-05-15T09:54:15.287Z,14.90
2019-05-15T09:56:58.673Z,15.10
2019-05-15T09:59:40.416Z,15.30
2019-05-15T10:02:22.151Z,15.20
2019-05-15T10:05:10.632Z,15.10
2019-05-15T10:07:49.542Z,15.10
2019-05-15T10:10:30.732Z,15.00
2019-05-15T10:13:12.431Z,15.20
2019-05-15T10:15:54.559Z,15.40
2019-05-15T10:18:39.012Z,15.50
2019-05-15T10:21:20.312Z,15.70
2019-05-15T10:23:49.852Z,15.90
2019-05-15T10:26:58.124Z,16.10
2019-05-15T10:29:39.918Z,16.10
2019-05-15T10:32:21.930Z,16.10
2019-05-15T10:35:03.299Z,16.40
2019-05-15T10:37:45.080Z,16.40
2019-05-15T10:40:29.771Z,16.50
2019-05-15T10:43:11.996Z,16.40
2019-05-15T10:45:42.651Z,16.60
2019-05-15T10:48:19.001Z,16.80
2019-05-15T10:51:10.090Z,17.00
2019-05-15T10:53:49.966Z,17.20
2019-05-15T10:56:31.616Z,17.40
2019-05-15T10:59:11.292Z,17.40
2019-05-15T11:01:40.925Z,17.20
2019-05-15T11:04:22.489Z,17.30
2019-05-15T11:07:04.271Z,17.60
2019-05-15T11:09:48.717Z,17.70
2019-05-15T11:12:29.371Z,17.70
2019-05-15T11:15:11.526Z,18.10
2019-05-15T11:17:53.159Z,19.60
2019-05-15T11:20:34.546Z,22.10
2019-05-15T11:23:19.484Z,24.60
2019-05-15T11:25:59.248Z,25.70
2019-05-15T11:28:40.673Z,26.50
2019-05-15T11:31:24.782Z,27.60
2019-05-15T11:34:05.794Z,27.90
2019-05-15T11:36:48.435Z,28.20
2019-05-15T11:39:30.031Z,28.30
2019-05-15T11:42:11.876Z,28.60
2019-05-15T11:44:53.473Z,29.20
2019-05-15T11:47:35.336Z,27.70
2019-05-15T11:50:20.387Z,27.80
2019-05-15T11:53:01.049Z,27.90
2019-05-15T11:55:42.195Z,28.10
2019-05-15T11:58:24.053Z,28.00
2019-05-15T12:01:05.991Z,28.60
2019-05-15T12:03:47.837Z,29.40
2019-05-15T12:06:29.604Z,30.00
2019-05-15T12:09:11.168Z,29.70
2019-05-15T12:11:56.143Z,28.80
2019-05-15T12:14:38.983Z,28.90
2019-05-15T12:17:20.919Z,28.80
2019-05-15T12:20:06.598Z,29.20
2019-05-15T12:22:48.313Z,29.70
2019-05-15T12:25:31.723Z,29.10
2019-05-15T12:28:13.106Z,29.90
2019-05-15T12:30:59.337Z,29.40
2019-05-15T12:33:39.598Z,29.00
2019-05-15T12:36:46.207Z,29.10
2019-05-15T12:39:10.533Z,29.30
2019-05-15T13:01:18.363Z,31.90
2019-05-15T13:04:01.356Z,31.10
2019-05-15T13:06:49.476Z,30.30
2019-05-15T13:09:27.979Z,30.00
2019-05-15T13:12:10.484Z,30.40
2019-05-15T13:14:53.009Z,31.40
2019-05-15T13:17:34.755Z,32.10
2019-05-15T13:20:18.427Z,33.00
2019-05-15T13:23:00.902Z,33.00
2019-05-15T13:25:43.501Z,33.00
2019-05-15T13:28:25.622Z,32.60
2019-05-15T13:31:09.121Z,32.20
2019-05-15T13:33:39.290Z,31.00
2019-05-15T13:36:32.022Z,30.90
2019-05-15T13:39:14.254Z,31.30
2019-05-15T13:41:58.474Z,31.90
2019-05-15T13:44:29.298Z,31.90
2019-05-15T13:47:25.203Z,31.50
2019-05-15T13:50:07.935Z,31.70
2019-05-15T13:52:50.657Z,32.10
2019-05-15T13:55:36.345Z,31.80
2019-05-15T13:58:16.376Z,32.30
2019-05-15T14:00:58.755Z,32.30
2019-05-15T14:03:42.953Z,31.60
2019-05-15T14:06:25.321Z,31.90
2019-05-15T14:09:08.824Z,32.70
2019-05-15T14:11:51.221Z,32.90
2019-05-15T14:14:33.641Z,33.20
2019-05-15T14:17:15.541Z,32.60
2019-05-15T14:19:58.008Z,33.00
2019-05-15T14:22:40.622Z,33.20
2019-05-15T14:25:50.630Z,32.60
2019-05-15T14:28:51.749Z,31.70
2019-05-15T14:31:42.703Z,31.30
2019-05-15T14:34:24.787Z,31.80
2019-05-15T14:37:10.849Z,32.70
2019-05-15T14:39:52.744Z,31.70
2019-05-15T14:42:34.779Z,31.30
2019-05-15T14:45:19.055Z,30.90
2019-05-15T14:48:00.929Z,29.20
2019-05-15T14:50:43.471Z,29.50
2019-05-15T14:53:25.541Z,30.40
2019-05-15T14:56:08.926Z,32.30
2019-05-15T14:58:51.754Z,32.70
2019-05-15T15:01:34.135Z,31.50
2019-05-15T15:04:18.493Z,30.70
2019-05-15T15:07:00.360Z,30.30
2019-05-15T15:12:44.970Z,30.70
2019-05-15T15:18:09.749Z,33.20
2019-05-15T15:20:58.789Z,33.40
2019-05-15T15:23:45.336Z,32.70
2019-05-15T15:26:33.980Z,31.80
2019-05-15T15:29:16.040Z,31.30
2019-05-15T15:31:58.964Z,29.30
2019-05-15T15:34:41.515Z,27.30
2019-05-15T15:37:21.845Z,25.40
2019-05-15T15:39:53.201Z,23.80
2019-05-15T15:42:34.556Z,23.00
2019-05-15T15:45:15.975Z,24.40
2019-05-15T15:47:58.745Z,27.00
2019-05-15T15:50:40.680Z,28.60
2019-05-15T15:53:22.719Z,28.00
2019-05-15T15:56:06.895Z,26.00
2019-05-15T15:58:48.933Z,25.30
2019-05-15T16:01:31.431Z,26.40
2019-05-15T16:04:13.737Z,26.30
2019-05-15T16:06:58.833Z,25.00
2019-05-15T16:09:40.353Z,23.30
2019-05-15T16:12:27.778Z,22.50
2019-05-15T16:15:13.461Z,21.80
2019-05-15T16:17:54.713Z,21.20
2019-05-15T16:20:39.272Z,20.70
2019-05-15T16:23:19.393Z,20.70
2019-05-15T16:26:01.302Z,21.10
2019-05-15T16:28:41.137Z,21.60
2019-05-15T16:31:29.941Z,23.10
2019-05-15T16:34:32.115Z,25.30
2019-05-15T16:37:14.131Z,27.50
2019-05-15T16:39:57.911Z,29.50
2019-05-15T16:42:40.122Z,29.00
2019-05-15T16:45:21.327Z,28.10
2019-05-15T16:48:04.037Z,28.90
2019-05-15T16:50:48.572Z,29.50
2019-05-15T16:53:30.629Z,30.10
2019-05-15T16:56:12.560Z,30.20
2019-05-15T16:58:54.485Z,30.10
2019-05-15T17:01:39.157Z,31.00
2019-05-15T17:04:20.331Z,30.80
2019-05-15T17:07:02.150Z,30.00
2019-05-15T17:09:44.469Z,29.20
2019-05-15T17:12:27.857Z,28.00
2019-05-15T17:15:09.789Z,26.70
2019-05-15T17:17:40.298Z,25.10
2019-05-15T17:20:34.855Z,23.30
2019-05-15T17:23:18.724Z,21.70
2019-05-15T17:26:00.273Z,20.90
2019-05-15T17:28:42.155Z,20.40
2019-05-15T17:31:11.589Z,19.80
2019-05-15T17:34:00.312Z,19.20
2019-05-15T17:36:41.589Z,18.70
2019-05-15T17:39:33.769Z,18.40
2019-05-15T17:42:05.818Z,18.20
2019-05-15T17:44:48.800Z,18.00
2019-05-15T17:50:12.340Z,17.70
2019-05-15T17:52:54.086Z,17.50
2019-05-15T17:55:38.266Z,17.50
2019-05-15T17:58:19.344Z,17.40
2019-05-15T18:01:00.842Z,17.40
2019-05-15T18:03:42.724Z,17.40
2019-05-15T18:06:24.416Z,17.20
2019-05-15T18:09:08.544Z,17.30
2019-05-15T18:11:49.158Z,17.40
2019-05-15T18:14:31.405Z,17.30
2019-05-15T18:17:13.210Z,17.10
2019-05-15T18:19:55.511Z,17.00
2019-05-15T18:22:37.944Z,16.90
2019-05-15T18:25:20.274Z,16.70
2019-05-15T18:28:02.021Z,16.50
2019-05-15T18:30:43.885Z,16.40
2019-05-15T18:33:25.382Z,16.20
2019-05-15T18:36:08.691Z,15.80
2019-05-15T18:38:50.307Z,15.70
2019-05-15T18:41:32.220Z,15.50
2019-05-15T18:44:13.400Z,15.40
2019-05-15T18:46:55.391Z,15.30
2019-05-15T18:49:38.040Z,15.20
2019-05-15T18:52:21.054Z,14.90
2019-05-15T18:55:03.009Z,14.80
2019-05-15T18:57:45.092Z,14.80
2019-05-15T19:00:29.645Z,14.60
2019-05-15T19:03:19.695Z,14.50
2019-05-15T19:05:54.294Z,14.40
2019-05-15T19:08:35.530Z,14.30
2019-05-15T19:11:05.236Z,14.30
2019-05-15T19:13:53.962Z,14.20
2019-05-15T19:16:42.762Z,14.10
2019-05-15T19:19:24.189Z,14.00
2019-05-15T19:22:07.734Z,14.00
2019-05-15T19:24:48.520Z,14.00
2019-05-15T19:27:30.400Z,14.00
2019-05-15T19:30:12.055Z,13.90
2019-05-15T19:32:53.710Z,13.90
2019-05-15T19:35:35.673Z,13.90
2019-05-15T19:38:18.620Z,13.90
2019-05-15T19:41:02.665Z,13.80
2019-05-15T19:43:43.302Z,13.80
2019-05-15T19:46:25.190Z,13.80
2019-05-15T19:49:08.584Z,13.70
2019-05-15T19:51:49.567Z,13.70
2019-05-15T19:54:32.093Z,13.70
2019-05-15T19:57:13.501Z,13.60
2019-05-15T19:59:55.255Z,13.60
2019-05-15T20:02:38.070Z,13.50
2019-05-15T20:05:19.940Z,13.50
2019-05-15T20:08:01.974Z,13.40
2019-05-15T20:10:45.023Z,13.40
2019-05-15T20:13:28.874Z,13.40
2019-05-15T20:16:09.813Z,13.30
2019-05-15T20:18:51.720Z,13.30
2019-05-15T20:21:32.960Z,13.30
2019-05-15T20:24:14.390Z,13.30
2019-05-15T20:26:56.002Z,13.20
2019-05-15T20:29:38.359Z,13.20
2019-05-15T20:32:20.485Z,13.30
2019-05-15T20:35:02.260Z,13.20
2019-05-15T20:37:43.423Z,13.30
2019-05-15T20:40:25.584Z,13.20
2019-05-15T20:43:08.157Z,13.30
2019-05-15T20:45:49.626Z,13.20
2019-05-15T20:48:31.414Z,13.20
2019-05-15T20:51:13.366Z,13.20
2019-05-15T20:53:54.683Z,13.20
2019-05-15T20:56:38.485Z,13.20
2019-05-15T20:59:19.859Z,13.20
2019-05-15T21:02:01.795Z,13.10
2019-05-15T21:04:46.480Z,13.10
2019-05-15T21:07:38.577Z,13.00
2019-05-15T21:10:11.239Z,13.00
2019-05-15T21:12:52.999Z,12.90
2019-05-15T21:15:34.574Z,12.90
2019-05-15T21:18:20.135Z,12.90
2019-05-15T21:21:01.296Z,12.80
2019-05-15T21:23:42.773Z,12.80
2019-05-15T21:26:24.794Z,12.80
2019-05-15T21:29:08.156Z,12.70
2019-05-15T21:31:49.224Z,12.70
2019-05-15T21:34:37.508Z,12.60
2019-05-15T21:37:14.312Z,12.60
2019-05-15T21:39:58.839Z,12.50
2019-05-15T21:42:41.738Z,12.40
2019-05-15T21:45:22.021Z,12.30
2019-05-15T21:48:08.591Z,12.20
2019-05-15T21:50:50.501Z,12.10
2019-05-15T21:53:32.167Z,12.10
2019-05-15T21:56:14.192Z,12.00
2019-05-15T21:58:58.120Z,11.90
2019-05-15T22:01:39.736Z,11.90
2019-05-15T22:04:21.163Z,11.90
2019-05-15T22:07:02.486Z,11.90
2019-05-15T22:09:45.850Z,11.80
2019-05-15T22:12:28.581Z,11.80
2019-05-15T22:15:09.843Z,11.60
2019-05-15T22:17:51.272Z,11.60
2019-05-15T22:20:33.342Z,11.50
2019-05-15T22:23:14.708Z,11.50
2019-05-15T22:25:58.414Z,11.40
2019-05-15T22:28:39.637Z,11.30
2019-05-15T22:31:21.512Z,11.30
2019-05-15T22:34:03.392Z,11.10
2019-05-15T22:36:45.060Z,11.10
2019-05-15T22:39:28.059Z,11.10
2019-05-15T22:42:10.975Z,11.00
2019-05-15T22:44:52.626Z,10.90
2019-05-15T22:47:34.282Z,10.70
2019-05-15T22:50:18.583Z,10.50
2019-05-15T22:52:59.686Z,10.50
2019-05-15T22:55:29.250Z,10.40
2019-05-15T22:58:18.043Z,10.20
2019-05-15T23:00:59.867Z,10.30
2019-05-15T23:03:42.335Z,10.20
2019-05-15T23:06:24.410Z,10.30
2019-05-15T23:09:06.355Z,10.30
2019-05-15T23:11:35.786Z,10.40
2019-05-15T23:14:24.515Z,10.40
2019-05-15T23:17:13.297Z,10.40
2019-05-15T23:19:55.152Z,10.20
2019-05-15T23:22:38.477Z,10.10
2019-05-15T23:25:19.694Z,9.80
2019-05-15T23:28:01.661Z,9.60
2019-05-15T23:30:43.661Z,9.50
2019-05-15T23:33:28.098Z,9.40
2019-05-15T23:36:09.170Z,9.50
2019-05-15T23:38:53.470Z,9.40
2019-05-15T23:41:35.392Z,9.40
2019-05-15T23:44:18.376Z,9.30
2019-05-15T23:47:00.119Z,9.30
2019-05-15T23:49:42.893Z,9.40
2019-05-15T23:52:26.198Z,9.40
2019-05-15T23:55:08.650Z,9.30
2019-05-15T23:57:50.524Z,9.30
